sensor_id;sensor_type;location;lat;lon;timestamp;P1;durP1;ratioP1;P2;durP2;ratioP2
8247;SDS011;4164;49.844;8.830;2022-12-18T00:00:59;74.07;;;24.63;;
8247;SDS011;4164;49.844;8.830;2022-12-18T00:03:25;56.77;;;20.47;;
8247;SDS011;4164;49.844;8.830;2022-12-18T00:05:51;246.07;;;45.13;;
8247;SDS011;4164;49.844;8.830;2022-12-18T00:08:17;270.60;;;47.13;;
8247;SDS011;4164;49.844;8.830;2022-12-18T00:10:45;49.27;;;20.27;;
8247;SDS011;4164;49.844;8.830;2022-12-18T00:13:11;54.30;;;20.53;;
8247;SDS011;4164;49.844;8.830;2022-12-18T00:15:38;51.17;;;20.53;;
8247;SDS011;4164;49.844;8.830;2022-12-18T00:18:04;57.30;;;19.33;;
8247;SDS011;4164;49.844;8.830;2022-12-18T00:20:30;71.33;;;24.07;;
8247;SDS011;4164;49.844;8.830;2022-12-18T00:22:56;61.80;;;22.80;;
8247;SDS011;4164;49.844;8.830;2022-12-18T00:25:22;69.50;;;23.60;;
8247;SDS011;4164;49.844;8.830;2022-12-18T00:27:47;66.17;;;24.33;;
8247;SDS011;4164;49.844;8.830;2022-12-18T00:30:13;136.90;;;40.47;;
8247;SDS011;4164;49.844;8.830;2022-12-18T00:32:39;63.03;;;23.90;;
8247;SDS011;4164;49.844;8.830;2022-12-18T00:35:05;51.73;;;20.93;;
8247;SDS011;4164;49.844;8.830;2022-12-18T00:37:33;53.17;;;19.33;;
8247;SDS011;4164;49.844;8.830;2022-12-18T00:39:58;53.50;;;20.17;;
8247;SDS011;4164;49.844;8.830;2022-12-18T00:42:24;54.03;;;21.00;;
8247;SDS011;4164;49.844;8.830;2022-12-18T00:45:08;54.20;;;21.50;;
8247;SDS011;4164;49.844;8.830;2022-12-18T00:47:34;48.73;;;19.73;;
8247;SDS011;4164;49.844;8.830;2022-12-18T00:50:00;49.60;;;20.47;;
8247;SDS011;4164;49.844;8.830;2022-12-18T00:52:25;47.77;;;18.80;;
8247;SDS011;4164;49.844;8.830;2022-12-18T00:54:51;51.10;;;19.90;;
8247;SDS011;4164;49.844;8.830;2022-12-18T00:57:17;70.20;;;26.07;;
8247;SDS011;4164;49.844;8.830;2022-12-18T00:59:42;59.80;;;23.43;;
8247;SDS011;4164;49.844;8.830;2022-12-18T01:02:08;61.97;;;23.43;;
8247;SDS011;4164;49.844;8.830;2022-12-18T01:04:33;45.27;;;19.37;;
8247;SDS011;4164;49.844;8.830;2022-12-18T01:06:59;51.30;;;20.30;;
8247;SDS011;4164;49.844;8.830;2022-12-18T01:09:25;50.67;;;21.93;;
8247;SDS011;4164;49.844;8.830;2022-12-18T01:11:51;52.83;;;21.00;;
8247;SDS011;4164;49.844;8.830;2022-12-18T01:14:16;42.30;;;19.13;;
8247;SDS011;4164;49.844;8.830;2022-12-18T01:16:42;44.93;;;18.67;;
8247;SDS011;4164;49.844;8.830;2022-12-18T01:19:07;45.30;;;17.27;;
8247;SDS011;4164;49.844;8.830;2022-12-18T01:21:33;42.60;;;17.50;;
8247;SDS011;4164;49.844;8.830;2022-12-18T01:23:59;45.23;;;17.20;;
8247;SDS011;4164;49.844;8.830;2022-12-18T01:26:25;44.37;;;17.83;;
8247;SDS011;4164;49.844;8.830;2022-12-18T01:28:53;45.80;;;17.43;;
8247;SDS011;4164;49.844;8.830;2022-12-18T01:31:21;42.27;;;18.10;;
8247;SDS011;4164;49.844;8.830;2022-12-18T01:33:54;42.33;;;17.37;;
8247;SDS011;4164;49.844;8.830;2022-12-18T01:36:21;46.77;;;18.53;;
8247;SDS011;4164;49.844;8.830;2022-12-18T01:38:49;38.27;;;16.20;;
8247;SDS011;4164;49.844;8.830;2022-12-18T01:41:16;36.40;;;17.27;;
8247;SDS011;4164;49.844;8.830;2022-12-18T01:43:44;44.20;;;18.17;;
8247;SDS011;4164;49.844;8.830;2022-12-18T01:46:12;39.13;;;17.67;;
8247;SDS011;4164;49.844;8.830;2022-12-18T01:48:38;38.07;;;17.57;;
8247;SDS011;4164;49.844;8.830;2022-12-18T01:51:06;46.60;;;17.87;;
8247;SDS011;4164;49.844;8.830;2022-12-18T01:53:34;43.23;;;17.50;;
8247;SDS011;4164;49.844;8.830;2022-12-18T01:56:00;39.50;;;17.93;;
8247;SDS011;4164;49.844;8.830;2022-12-18T01:58:30;47.00;;;17.80;;
8247;SDS011;4164;49.844;8.830;2022-12-18T02:01:04;44.30;;;17.07;;
8247;SDS011;4164;49.844;8.830;2022-12-18T02:03:30;42.23;;;17.77;;
8247;SDS011;4164;49.844;8.830;2022-12-18T02:08:53;41.70;;;17.03;;
8247;SDS011;4164;49.844;8.830;2022-12-18T02:14:28;44.23;;;17.20;;
8247;SDS011;4164;49.844;8.830;2022-12-18T02:17:04;40.43;;;16.07;;
8247;SDS011;4164;49.844;8.830;2022-12-18T02:22:29;35.20;;;15.53;;
8247;SDS011;4164;49.844;8.830;2022-12-18T02:27:47;37.00;;;16.63;;
8247;SDS011;4164;49.844;8.830;2022-12-18T02:30:15;41.23;;;15.63;;
8247;SDS011;4164;49.844;8.830;2022-12-18T02:32:43;36.27;;;15.57;;
8247;SDS011;4164;49.844;8.830;2022-12-18T02:35:22;30.83;;;15.63;;
8247;SDS011;4164;49.844;8.830;2022-12-18T02:37:49;33.30;;;14.83;;
8247;SDS011;4164;49.844;8.830;2022-12-18T02:40:16;34.70;;;15.10;;
8247;SDS011;4164;49.844;8.830;2022-12-18T02:42:44;30.23;;;14.73;;
8247;SDS011;4164;49.844;8.830;2022-12-18T02:45:09;32.17;;;14.53;;
8247;SDS011;4164;49.844;8.830;2022-12-18T02:47:39;30.57;;;13.27;;
8247;SDS011;4164;49.844;8.830;2022-12-18T02:50:54;32.50;;;14.47;;
8247;SDS011;4164;49.844;8.830;2022-12-18T02:53:04;35.53;;;14.37;;
8247;SDS011;4164;49.844;8.830;2022-12-18T02:58:13;34.13;;;15.63;;
8247;SDS011;4164;49.844;8.830;2022-12-18T03:00:50;37.57;;;15.23;;
8247;SDS011;4164;49.844;8.830;2022-12-18T03:03:40;37.43;;;16.13;;
8247;SDS011;4164;49.844;8.830;2022-12-18T03:06:18;37.23;;;16.13;;
8247;SDS011;4164;49.844;8.830;2022-12-18T03:08:50;36.07;;;15.20;;
8247;SDS011;4164;49.844;8.830;2022-12-18T03:11:22;41.20;;;18.40;;
8247;SDS011;4164;49.844;8.830;2022-12-18T03:14:08;37.67;;;14.87;;
8247;SDS011;4164;49.844;8.830;2022-12-18T03:16:37;35.93;;;14.07;;
8247;SDS011;4164;49.844;8.830;2022-12-18T03:19:10;37.90;;;15.13;;
8247;SDS011;4164;49.844;8.830;2022-12-18T03:21:41;36.13;;;15.13;;
8247;SDS011;4164;49.844;8.830;2022-12-18T03:24:10;36.37;;;14.83;;
8247;SDS011;4164;49.844;8.830;2022-12-18T03:26:37;35.63;;;15.00;;
8247;SDS011;4164;49.844;8.830;2022-12-18T03:29:19;37.10;;;17.03;;
8247;SDS011;4164;49.844;8.830;2022-12-18T03:31:51;35.60;;;15.50;;
8247;SDS011;4164;49.844;8.830;2022-12-18T03:34:26;32.63;;;15.73;;
8247;SDS011;4164;49.844;8.830;2022-12-18T03:36:57;34.63;;;15.43;;
8247;SDS011;4164;49.844;8.830;2022-12-18T03:39:23;34.10;;;14.83;;
8247;SDS011;4164;49.844;8.830;2022-12-18T03:41:55;32.90;;;13.60;;
8247;SDS011;4164;49.844;8.830;2022-12-18T03:44:46;36.43;;;14.30;;
8247;SDS011;4164;49.844;8.830;2022-12-18T03:47:27;34.13;;;14.57;;
8247;SDS011;4164;49.844;8.830;2022-12-18T03:52:50;31.43;;;12.13;;
8247;SDS011;4164;49.844;8.830;2022-12-18T03:55:22;32.73;;;13.83;;
8247;SDS011;4164;49.844;8.830;2022-12-18T03:57:49;34.33;;;14.10;;
8247;SDS011;4164;49.844;8.830;2022-12-18T04:00:17;27.53;;;14.10;;
8247;SDS011;4164;49.844;8.830;2022-12-18T04:02:45;33.90;;;12.53;;
8247;SDS011;4164;49.844;8.830;2022-12-18T04:05:19;25.73;;;13.77;;
8247;SDS011;4164;49.844;8.830;2022-12-18T04:07:46;26.83;;;12.87;;
8247;SDS011;4164;49.844;8.830;2022-12-18T04:10:14;29.30;;;13.83;;
8247;SDS011;4164;49.844;8.830;2022-12-18T04:12:41;33.13;;;15.23;;
8247;SDS011;4164;49.844;8.830;2022-12-18T04:15:07;31.27;;;14.27;;
8247;SDS011;4164;49.844;8.830;2022-12-18T04:17:33;31.53;;;13.03;;
8247;SDS011;4164;49.844;8.830;2022-12-18T04:19:59;33.60;;;14.37;;
8247;SDS011;4164;49.844;8.830;2022-12-18T04:22:24;34.77;;;15.20;;
8247;SDS011;4164;49.844;8.830;2022-12-18T04:24:50;37.17;;;16.00;;
8247;SDS011;4164;49.844;8.830;2022-12-18T04:27:16;34.53;;;15.97;;
8247;SDS011;4164;49.844;8.830;2022-12-18T04:29:41;34.83;;;15.43;;
8247;SDS011;4164;49.844;8.830;2022-12-18T04:32:07;38.50;;;15.93;;
8247;SDS011;4164;49.844;8.830;2022-12-18T04:34:33;29.43;;;13.83;;
8247;SDS011;4164;49.844;8.830;2022-12-18T04:36:58;27.40;;;13.77;;
8247;SDS011;4164;49.844;8.830;2022-12-18T04:39:24;30.47;;;13.40;;
8247;SDS011;4164;49.844;8.830;2022-12-18T04:41:49;28.20;;;14.57;;
8247;SDS011;4164;49.844;8.830;2022-12-18T04:44:15;29.20;;;14.50;;
8247;SDS011;4164;49.844;8.830;2022-12-18T04:46:41;33.23;;;13.23;;
8247;SDS011;4164;49.844;8.830;2022-12-18T04:49:06;27.83;;;13.40;;
8247;SDS011;4164;49.844;8.830;2022-12-18T04:51:32;27.60;;;12.47;;
8247;SDS011;4164;49.844;8.830;2022-12-18T04:53:57;40.33;;;16.80;;
8247;SDS011;4164;49.844;8.830;2022-12-18T04:56:23;40.17;;;17.40;;
8247;SDS011;4164;49.844;8.830;2022-12-18T04:58:48;40.43;;;17.13;;
8247;SDS011;4164;49.844;8.830;2022-12-18T05:01:15;38.23;;;16.80;;
8247;SDS011;4164;49.844;8.830;2022-12-18T05:03:42;40.07;;;18.20;;
8247;SDS011;4164;49.844;8.830;2022-12-18T05:06:07;39.60;;;18.43;;
8247;SDS011;4164;49.844;8.830;2022-12-18T05:08:36;40.57;;;18.90;;
8247;SDS011;4164;49.844;8.830;2022-12-18T05:11:04;40.57;;;18.53;;
8247;SDS011;4164;49.844;8.830;2022-12-18T05:13:31;62.23;;;22.07;;
8247;SDS011;4164;49.844;8.830;2022-12-18T05:15:58;65.10;;;26.13;;
8247;SDS011;4164;49.844;8.830;2022-12-18T05:18:24;52.40;;;21.33;;
8247;SDS011;4164;49.844;8.830;2022-12-18T05:20:51;47.33;;;19.83;;
8247;SDS011;4164;49.844;8.830;2022-12-18T05:23:17;39.00;;;17.07;;
8247;SDS011;4164;49.844;8.830;2022-12-18T05:25:51;35.07;;;15.93;;
8247;SDS011;4164;49.844;8.830;2022-12-18T05:28:29;33.73;;;15.93;;
8247;SDS011;4164;49.844;8.830;2022-12-18T05:30:56;48.87;;;19.47;;
8247;SDS011;4164;49.844;8.830;2022-12-18T05:33:26;35.40;;;16.77;;
8247;SDS011;4164;49.844;8.830;2022-12-18T05:35:54;47.17;;;18.43;;
8247;SDS011;4164;49.844;8.830;2022-12-18T05:38:22;46.60;;;20.60;;
8247;SDS011;4164;49.844;8.830;2022-12-18T05:40:48;37.00;;;17.00;;
8247;SDS011;4164;49.844;8.830;2022-12-18T05:43:14;31.50;;;15.37;;
8247;SDS011;4164;49.844;8.830;2022-12-18T05:45:41;36.03;;;16.40;;
8247;SDS011;4164;49.844;8.830;2022-12-18T05:48:07;32.87;;;15.63;;
8247;SDS011;4164;49.844;8.830;2022-12-18T05:50:34;38.27;;;17.07;;
8247;SDS011;4164;49.844;8.830;2022-12-18T05:53:01;43.60;;;17.10;;
8247;SDS011;4164;49.844;8.830;2022-12-18T05:55:27;32.90;;;14.47;;
8247;SDS011;4164;49.844;8.830;2022-12-18T05:57:52;35.77;;;16.50;;
8247;SDS011;4164;49.844;8.830;2022-12-18T06:00:18;34.07;;;16.63;;
8247;SDS011;4164;49.844;8.830;2022-12-18T06:02:46;40.73;;;17.27;;
8247;SDS011;4164;49.844;8.830;2022-12-18T06:05:12;36.03;;;15.33;;
8247;SDS011;4164;49.844;8.830;2022-12-18T06:07:37;35.17;;;15.60;;
8247;SDS011;4164;49.844;8.830;2022-12-18T06:10:03;36.67;;;15.47;;
8247;SDS011;4164;49.844;8.830;2022-12-18T06:12:29;32.37;;;14.80;;
8247;SDS011;4164;49.844;8.830;2022-12-18T06:14:54;38.87;;;15.23;;
8247;SDS011;4164;49.844;8.830;2022-12-18T06:17:20;34.90;;;15.77;;
8247;SDS011;4164;49.844;8.830;2022-12-18T06:19:45;34.77;;;15.20;;
8247;SDS011;4164;49.844;8.830;2022-12-18T06:22:11;32.27;;;15.70;;
8247;SDS011;4164;49.844;8.830;2022-12-18T06:24:36;47.33;;;20.13;;
8247;SDS011;4164;49.844;8.830;2022-12-18T06:27:02;68.03;;;26.20;;
8247;SDS011;4164;49.844;8.830;2022-12-18T06:29:28;56.10;;;25.20;;
8247;SDS011;4164;49.844;8.830;2022-12-18T06:31:53;55.23;;;23.10;;
8247;SDS011;4164;49.844;8.830;2022-12-18T06:34:19;45.83;;;20.70;;
8247;SDS011;4164;49.844;8.830;2022-12-18T06:36:44;38.67;;;19.27;;
8247;SDS011;4164;49.844;8.830;2022-12-18T06:39:10;45.07;;;20.57;;
8247;SDS011;4164;49.844;8.830;2022-12-18T06:41:35;43.37;;;20.00;;
8247;SDS011;4164;49.844;8.830;2022-12-18T06:44:01;42.17;;;17.93;;
8247;SDS011;4164;49.844;8.830;2022-12-18T06:46:26;47.60;;;17.93;;
8247;SDS011;4164;49.844;8.830;2022-12-18T06:48:52;39.70;;;17.73;;
8247;SDS011;4164;49.844;8.830;2022-12-18T06:51:19;41.23;;;17.23;;
8247;SDS011;4164;49.844;8.830;2022-12-18T06:53:45;33.67;;;15.00;;
8247;SDS011;4164;49.844;8.830;2022-12-18T06:56:11;33.23;;;15.63;;
8247;SDS011;4164;49.844;8.830;2022-12-18T06:58:37;30.67;;;13.90;;
8247;SDS011;4164;49.844;8.830;2022-12-18T07:01:04;34.40;;;16.50;;
8247;SDS011;4164;49.844;8.830;2022-12-18T07:03:33;36.53;;;15.37;;
8247;SDS011;4164;49.844;8.830;2022-12-18T07:05:59;33.33;;;15.83;;
8247;SDS011;4164;49.844;8.830;2022-12-18T07:08:25;35.03;;;15.40;;
8247;SDS011;4164;49.844;8.830;2022-12-18T07:10:51;32.20;;;14.50;;
8247;SDS011;4164;49.844;8.830;2022-12-18T07:13:17;35.33;;;16.37;;
8247;SDS011;4164;49.844;8.830;2022-12-18T07:15:43;51.63;;;16.37;;
8247;SDS011;4164;49.844;8.830;2022-12-18T07:18:09;34.67;;;15.00;;
8247;SDS011;4164;49.844;8.830;2022-12-18T07:20:34;41.83;;;17.23;;
8247;SDS011;4164;49.844;8.830;2022-12-18T07:23:04;40.27;;;15.07;;
8247;SDS011;4164;49.844;8.830;2022-12-18T07:25:30;43.83;;;17.53;;
8247;SDS011;4164;49.844;8.830;2022-12-18T07:28:02;37.87;;;15.20;;
8247;SDS011;4164;49.844;8.830;2022-12-18T07:30:28;48.50;;;17.77;;
8247;SDS011;4164;49.844;8.830;2022-12-18T07:32:54;81.80;;;27.67;;
8247;SDS011;4164;49.844;8.830;2022-12-18T07:35:19;41.07;;;19.27;;
8247;SDS011;4164;49.844;8.830;2022-12-18T07:37:45;60.17;;;23.13;;
8247;SDS011;4164;49.844;8.830;2022-12-18T07:40:11;64.87;;;21.67;;
8247;SDS011;4164;49.844;8.830;2022-12-18T07:42:36;55.00;;;22.17;;
8247;SDS011;4164;49.844;8.830;2022-12-18T07:45:02;61.17;;;23.23;;
8247;SDS011;4164;49.844;8.830;2022-12-18T07:47:28;54.70;;;22.40;;
8247;SDS011;4164;49.844;8.830;2022-12-18T07:49:59;71.83;;;28.20;;
8247;SDS011;4164;49.844;8.830;2022-12-18T07:52:25;74.67;;;26.50;;
8247;SDS011;4164;49.844;8.830;2022-12-18T07:54:51;80.80;;;27.27;;
8247;SDS011;4164;49.844;8.830;2022-12-18T07:57:16;78.33;;;28.93;;
8247;SDS011;4164;49.844;8.830;2022-12-18T07:59:42;82.40;;;30.10;;
8247;SDS011;4164;49.844;8.830;2022-12-18T08:02:11;73.73;;;26.33;;
8247;SDS011;4164;49.844;8.830;2022-12-18T08:04:36;75.03;;;27.67;;
8247;SDS011;4164;49.844;8.830;2022-12-18T08:07:02;61.20;;;27.37;;
8247;SDS011;4164;49.844;8.830;2022-12-18T08:09:28;63.83;;;22.90;;
8247;SDS011;4164;49.844;8.830;2022-12-18T08:11:53;48.83;;;20.40;;
8247;SDS011;4164;49.844;8.830;2022-12-18T08:14:19;54.67;;;20.87;;
8247;SDS011;4164;49.844;8.830;2022-12-18T08:16:44;49.87;;;20.37;;
8247;SDS011;4164;49.844;8.830;2022-12-18T08:19:10;40.17;;;19.10;;
8247;SDS011;4164;49.844;8.830;2022-12-18T08:21:35;60.03;;;23.93;;
8247;SDS011;4164;49.844;8.830;2022-12-18T08:24:02;116.23;;;38.50;;
8247;SDS011;4164;49.844;8.830;2022-12-18T08:26:28;97.70;;;37.10;;
8247;SDS011;4164;49.844;8.830;2022-12-18T08:28:56;85.90;;;31.97;;
8247;SDS011;4164;49.844;8.830;2022-12-18T08:31:23;70.57;;;28.70;;
8247;SDS011;4164;49.844;8.830;2022-12-18T08:33:49;60.30;;;27.50;;
8247;SDS011;4164;49.844;8.830;2022-12-18T08:36:17;52.17;;;22.20;;
8247;SDS011;4164;49.844;8.830;2022-12-18T08:38:43;57.00;;;24.07;;
8247;SDS011;4164;49.844;8.830;2022-12-18T08:41:09;47.67;;;23.43;;
8247;SDS011;4164;49.844;8.830;2022-12-18T08:43:36;46.83;;;19.93;;
8247;SDS011;4164;49.844;8.830;2022-12-18T08:46:21;46.93;;;19.13;;
8247;SDS011;4164;49.844;8.830;2022-12-18T08:48:47;71.57;;;26.03;;
8247;SDS011;4164;49.844;8.830;2022-12-18T08:51:15;43.10;;;21.63;;
8247;SDS011;4164;49.844;8.830;2022-12-18T08:53:42;55.53;;;23.80;;
8247;SDS011;4164;49.844;8.830;2022-12-18T08:56:09;49.30;;;24.80;;
8247;SDS011;4164;49.844;8.830;2022-12-18T08:58:35;47.63;;;22.50;;
8247;SDS011;4164;49.844;8.830;2022-12-18T09:01:04;55.73;;;24.50;;
8247;SDS011;4164;49.844;8.830;2022-12-18T09:03:34;57.07;;;25.07;;
8247;SDS011;4164;49.844;8.830;2022-12-18T09:06:00;54.43;;;24.47;;
8247;SDS011;4164;49.844;8.830;2022-12-18T09:08:26;53.67;;;25.00;;
8247;SDS011;4164;49.844;8.830;2022-12-18T09:10:52;50.17;;;23.27;;
8247;SDS011;4164;49.844;8.830;2022-12-18T09:13:18;53.27;;;24.27;;
8247;SDS011;4164;49.844;8.830;2022-12-18T09:15:48;43.70;;;21.60;;
8247;SDS011;4164;49.844;8.830;2022-12-18T09:18:15;48.17;;;22.00;;
8247;SDS011;4164;49.844;8.830;2022-12-18T09:20:42;46.77;;;23.27;;
8247;SDS011;4164;49.844;8.830;2022-12-18T09:23:08;54.60;;;23.27;;
8247;SDS011;4164;49.844;8.830;2022-12-18T09:25:34;51.83;;;21.63;;
8247;SDS011;4164;49.844;8.830;2022-12-18T09:28:13;54.13;;;22.77;;
8247;SDS011;4164;49.844;8.830;2022-12-18T09:30:41;52.83;;;23.47;;
8247;SDS011;4164;49.844;8.830;2022-12-18T09:33:12;46.40;;;22.80;;
8247;SDS011;4164;49.844;8.830;2022-12-18T09:35:39;43.97;;;21.17;;
8247;SDS011;4164;49.844;8.830;2022-12-18T09:38:06;46.00;;;20.80;;
8247;SDS011;4164;49.844;8.830;2022-12-18T09:40:35;44.37;;;20.10;;
8247;SDS011;4164;49.844;8.830;2022-12-18T09:43:06;58.73;;;26.50;;
8247;SDS011;4164;49.844;8.830;2022-12-18T09:45:40;75.60;;;32.50;;
8247;SDS011;4164;49.844;8.830;2022-12-18T09:48:51;61.77;;;27.27;;
8247;SDS011;4164;49.844;8.830;2022-12-18T09:51:05;54.10;;;23.20;;
8247;SDS011;4164;49.844;8.830;2022-12-18T09:53:39;50.03;;;23.80;;
8247;SDS011;4164;49.844;8.830;2022-12-18T09:56:10;53.00;;;23.17;;
8247;SDS011;4164;49.844;8.830;2022-12-18T09:58:52;44.10;;;21.80;;
8247;SDS011;4164;49.844;8.830;2022-12-18T10:01:23;45.80;;;21.87;;
8247;SDS011;4164;49.844;8.830;2022-12-18T10:03:49;49.10;;;21.47;;
8247;SDS011;4164;49.844;8.830;2022-12-18T10:09:17;48.20;;;20.70;;
8247;SDS011;4164;49.844;8.830;2022-12-18T10:20:04;49.13;;;20.97;;
8247;SDS011;4164;49.844;8.830;2022-12-18T10:22:40;51.10;;;22.67;;
8247;SDS011;4164;49.844;8.830;2022-12-18T10:25:34;46.20;;;20.03;;
8247;SDS011;4164;49.844;8.830;2022-12-18T10:28:13;43.70;;;20.57;;
8247;SDS011;4164;49.844;8.830;2022-12-18T10:30:40;44.30;;;20.40;;
8247;SDS011;4164;49.844;8.830;2022-12-18T10:33:10;42.83;;;20.27;;
8247;SDS011;4164;49.844;8.830;2022-12-18T10:35:48;42.93;;;19.33;;
8247;SDS011;4164;49.844;8.830;2022-12-18T10:43:47;41.53;;;19.70;;
8247;SDS011;4164;49.844;8.830;2022-12-18T10:46:17;49.70;;;20.60;;
8247;SDS011;4164;49.844;8.830;2022-12-18T10:51:27;42.93;;;20.87;;
8247;SDS011;4164;49.844;8.830;2022-12-18T10:56:44;47.57;;;21.60;;
8247;SDS011;4164;49.844;8.830;2022-12-18T10:59:12;46.67;;;21.07;;
8247;SDS011;4164;49.844;8.830;2022-12-18T11:01:58;47.93;;;22.03;;
8247;SDS011;4164;49.844;8.830;2022-12-18T11:04:27;48.67;;;20.70;;
8247;SDS011;4164;49.844;8.830;2022-12-18T11:07:02;45.60;;;19.83;;
8247;SDS011;4164;49.844;8.830;2022-12-18T11:11:57;48.57;;;20.17;;
8247;SDS011;4164;49.844;8.830;2022-12-18T11:16:53;46.40;;;20.43;;
8247;SDS011;4164;49.844;8.830;2022-12-18T11:19:21;59.83;;;27.57;;
8247;SDS011;4164;49.844;8.830;2022-12-18T11:21:58;42.50;;;18.77;;
8247;SDS011;4164;49.844;8.830;2022-12-18T11:24:27;47.63;;;20.07;;
8247;SDS011;4164;49.844;8.830;2022-12-18T11:26:58;41.87;;;18.90;;
8247;SDS011;4164;49.844;8.830;2022-12-18T11:29:45;42.57;;;19.67;;
8247;SDS011;4164;49.844;8.830;2022-12-18T11:38:12;44.43;;;20.30;;
8247;SDS011;4164;49.844;8.830;2022-12-18T11:40:40;48.47;;;18.50;;
8247;SDS011;4164;49.844;8.830;2022-12-18T11:45:51;48.63;;;19.50;;
8247;SDS011;4164;49.844;8.830;2022-12-18T11:49:03;46.43;;;20.47;;
8247;SDS011;4164;49.844;8.830;2022-12-18T11:51:30;44.00;;;18.47;;
8247;SDS011;4164;49.844;8.830;2022-12-18T11:54:00;46.90;;;20.50;;
8247;SDS011;4164;49.844;8.830;2022-12-18T11:56:30;48.07;;;19.40;;
8247;SDS011;4164;49.844;8.830;2022-12-18T12:01:45;41.90;;;19.03;;
8247;SDS011;4164;49.844;8.830;2022-12-18T12:21:17;50.70;;;20.00;;
8247;SDS011;4164;49.844;8.830;2022-12-18T12:24:17;51.87;;;20.50;;
8247;SDS011;4164;49.844;8.830;2022-12-18T12:32:37;53.73;;;19.60;;
8247;SDS011;4164;49.844;8.830;2022-12-18T12:40:54;44.33;;;18.90;;
8247;SDS011;4164;49.844;8.830;2022-12-18T12:46:03;47.07;;;20.37;;
8247;SDS011;4164;49.844;8.830;2022-12-18T12:51:15;56.50;;;23.10;;
8247;SDS011;4164;49.844;8.830;2022-12-18T12:53:44;64.67;;;24.90;;
8247;SDS011;4164;49.844;8.830;2022-12-18T12:56:11;66.87;;;26.33;;
8247;SDS011;4164;49.844;8.830;2022-12-18T13:01:32;47.53;;;20.27;;
8247;SDS011;4164;49.844;8.830;2022-12-18T13:07:05;48.00;;;18.43;;
8247;SDS011;4164;49.844;8.830;2022-12-18T13:15:43;43.13;;;18.60;;
8247;SDS011;4164;49.844;8.830;2022-12-18T13:18:15;45.43;;;19.57;;
8247;SDS011;4164;49.844;8.830;2022-12-18T13:23:19;43.70;;;18.60;;
8247;SDS011;4164;49.844;8.830;2022-12-18T13:25:59;46.30;;;20.50;;
8247;SDS011;4164;49.844;8.830;2022-12-18T13:31:57;40.80;;;19.63;;
8247;SDS011;4164;49.844;8.830;2022-12-18T13:36:44;41.57;;;18.27;;
8247;SDS011;4164;49.844;8.830;2022-12-18T13:39:11;42.70;;;18.83;;
8247;SDS011;4164;49.844;8.830;2022-12-18T13:42:37;47.37;;;17.93;;
8247;SDS011;4164;49.844;8.830;2022-12-18T13:44:37;46.00;;;19.67;;
8247;SDS011;4164;49.844;8.830;2022-12-18T13:47:05;43.43;;;18.63;;
8247;SDS011;4164;49.844;8.830;2022-12-18T13:49:56;44.97;;;18.77;;
8247;SDS011;4164;49.844;8.830;2022-12-18T13:52:22;44.53;;;19.07;;
8247;SDS011;4164;49.844;8.830;2022-12-18T13:54:51;42.33;;;17.70;;
8247;SDS011;4164;49.844;8.830;2022-12-18T13:57:37;44.80;;;19.03;;
8247;SDS011;4164;49.844;8.830;2022-12-18T14:02:50;49.13;;;18.53;;
8247;SDS011;4164;49.844;8.830;2022-12-18T14:05:23;52.40;;;22.27;;
8247;SDS011;4164;49.844;8.830;2022-12-18T14:07:50;72.97;;;27.40;;
8247;SDS011;4164;49.844;8.830;2022-12-18T14:10:17;73.90;;;27.67;;
8247;SDS011;4164;49.844;8.830;2022-12-18T14:12:47;42.53;;;17.63;;
8247;SDS011;4164;49.844;8.830;2022-12-18T14:17:52;45.00;;;18.40;;
8247;SDS011;4164;49.844;8.830;2022-12-18T14:20:20;40.73;;;16.53;;
8247;SDS011;4164;49.844;8.830;2022-12-18T14:22:47;39.10;;;17.97;;
8247;SDS011;4164;49.844;8.830;2022-12-18T14:27:46;50.87;;;20.47;;
8247;SDS011;4164;49.844;8.830;2022-12-18T14:33:08;46.70;;;19.37;;
8247;SDS011;4164;49.844;8.830;2022-12-18T14:35:37;45.90;;;17.53;;
8247;SDS011;4164;49.844;8.830;2022-12-18T14:38:11;41.80;;;16.93;;
8247;SDS011;4164;49.844;8.830;2022-12-18T14:40:57;46.27;;;18.97;;
8247;SDS011;4164;49.844;8.830;2022-12-18T14:43:24;39.77;;;18.43;;
8247;SDS011;4164;49.844;8.830;2022-12-18T14:45:54;45.20;;;18.87;;
8247;SDS011;4164;49.844;8.830;2022-12-18T14:48:22;41.93;;;16.83;;
8247;SDS011;4164;49.844;8.830;2022-12-18T14:51:00;44.80;;;19.10;;
8247;SDS011;4164;49.844;8.830;2022-12-18T14:53:45;44.53;;;18.60;;
8247;SDS011;4164;49.844;8.830;2022-12-18T14:56:23;47.23;;;18.53;;
8247;SDS011;4164;49.844;8.830;2022-12-18T14:58:59;43.97;;;18.27;;
8247;SDS011;4164;49.844;8.830;2022-12-18T15:01:39;48.37;;;18.53;;
8247;SDS011;4164;49.844;8.830;2022-12-18T15:07:19;42.33;;;18.83;;
8247;SDS011;4164;49.844;8.830;2022-12-18T15:12:35;40.70;;;17.67;;
8247;SDS011;4164;49.844;8.830;2022-12-18T15:15:04;45.70;;;17.80;;
8247;SDS011;4164;49.844;8.830;2022-12-18T15:17:30;43.43;;;17.93;;
8247;SDS011;4164;49.844;8.830;2022-12-18T15:20:03;44.20;;;18.23;;
8247;SDS011;4164;49.844;8.830;2022-12-18T15:22:35;40.80;;;17.77;;
8247;SDS011;4164;49.844;8.830;2022-12-18T15:25:02;42.43;;;16.77;;
8247;SDS011;4164;49.844;8.830;2022-12-18T15:27:48;47.87;;;17.67;;
8247;SDS011;4164;49.844;8.830;2022-12-18T15:30:17;37.60;;;16.80;;
8247;SDS011;4164;49.844;8.830;2022-12-18T15:32:46;45.47;;;18.37;;
8247;SDS011;4164;49.844;8.830;2022-12-18T15:35:13;42.37;;;18.03;;
8247;SDS011;4164;49.844;8.830;2022-12-18T15:37:43;46.13;;;18.90;;
8247;SDS011;4164;49.844;8.830;2022-12-18T15:40:15;44.23;;;18.87;;
8247;SDS011;4164;49.844;8.830;2022-12-18T15:42:51;45.10;;;18.30;;
8247;SDS011;4164;49.844;8.830;2022-12-18T15:45:37;50.37;;;19.33;;
8247;SDS011;4164;49.844;8.830;2022-12-18T15:48:10;40.70;;;17.17;;
8247;SDS011;4164;49.844;8.830;2022-12-18T15:50:45;42.13;;;19.53;;
8247;SDS011;4164;49.844;8.830;2022-12-18T15:53:11;40.87;;;16.93;;
8247;SDS011;4164;49.844;8.830;2022-12-18T15:55:36;42.97;;;18.37;;
8247;SDS011;4164;49.844;8.830;2022-12-18T15:58:21;41.80;;;19.33;;
8247;SDS011;4164;49.844;8.830;2022-12-18T16:00:47;62.90;;;21.40;;
8247;SDS011;4164;49.844;8.830;2022-12-18T16:03:12;64.27;;;25.20;;
8247;SDS011;4164;49.844;8.830;2022-12-18T16:05:38;87.80;;;30.10;;
8247;SDS011;4164;49.844;8.830;2022-12-18T16:08:03;65.97;;;26.77;;
8247;SDS011;4164;49.844;8.830;2022-12-18T16:10:29;47.57;;;22.57;;
8247;SDS011;4164;49.844;8.830;2022-12-18T16:12:54;48.10;;;20.20;;
8247;SDS011;4164;49.844;8.830;2022-12-18T16:15:20;45.90;;;19.77;;
8247;SDS011;4164;49.844;8.830;2022-12-18T16:17:46;43.47;;;19.10;;
8247;SDS011;4164;49.844;8.830;2022-12-18T16:20:13;49.43;;;19.90;;
8247;SDS011;4164;49.844;8.830;2022-12-18T16:22:40;50.20;;;20.77;;
8247;SDS011;4164;49.844;8.830;2022-12-18T16:25:10;53.30;;;21.87;;
8247;SDS011;4164;49.844;8.830;2022-12-18T16:27:43;51.87;;;21.30;;
8247;SDS011;4164;49.844;8.830;2022-12-18T16:30:12;49.97;;;21.27;;
8247;SDS011;4164;49.844;8.830;2022-12-18T16:32:39;48.53;;;20.97;;
8247;SDS011;4164;49.844;8.830;2022-12-18T16:35:04;43.77;;;18.90;;
8247;SDS011;4164;49.844;8.830;2022-12-18T16:37:30;46.97;;;20.70;;
8247;SDS011;4164;49.844;8.830;2022-12-18T16:39:56;49.57;;;20.20;;
8247;SDS011;4164;49.844;8.830;2022-12-18T16:42:21;56.67;;;20.47;;
8247;SDS011;4164;49.844;8.830;2022-12-18T16:44:48;45.10;;;20.27;;
8247;SDS011;4164;49.844;8.830;2022-12-18T16:47:14;49.90;;;20.17;;
8247;SDS011;4164;49.844;8.830;2022-12-18T16:49:40;49.80;;;21.47;;
8247;SDS011;4164;49.844;8.830;2022-12-18T16:52:06;81.00;;;29.27;;
8247;SDS011;4164;49.844;8.830;2022-12-18T16:54:32;67.83;;;25.60;;
8247;SDS011;4164;49.844;8.830;2022-12-18T16:57:00;54.57;;;22.23;;
8247;SDS011;4164;49.844;8.830;2022-12-18T16:59:26;57.27;;;23.33;;
8247;SDS011;4164;49.844;8.830;2022-12-18T17:01:52;57.20;;;21.60;;
8247;SDS011;4164;49.844;8.830;2022-12-18T17:04:17;54.80;;;21.77;;
8247;SDS011;4164;49.844;8.830;2022-12-18T17:06:44;59.73;;;23.30;;